Latest Weather Observations for Naracoorte

IDS60801

Issued at 6:05 pm CDT Sunday 26 October 2014 (issued every 30 minutes, with the page automatically refreshed every 10 minutes)

About weather observations | Map of weather stations | Latest weather observations for SA | Other Formats
Station Details ID: 026099 Name: NARACOORTE AERODROME Lat: -36.98 Lon: 140.73 Height: 49.72 m
Data from the previous 72 hours. | See also: Recent months at Naracoorte
Date/Time
CDT
Temp
°C
App
Temp
°C
Dew
Point
Rel
Hum
%
Delta-T
°C
Wind Press
QNH
hPa
Press
MSL
hPa
Rain
since 9 am
mm
Dir
 
Spd
km/h
Gust
km/h
Spd
kts
Gust
kts
26/06:00pm 24.7 21.3 11.3 43 7.6 NNW 20 28 11 15 1007.2 1007.2 0.0
26/05:30pm 25.6 22.6 10.6 39 8.4 NNW 17 24 9 13 1005.9 1005.9 0.0
26/05:00pm 25.8 21.7 10.0 37 8.8 N 22 30 12 16 1006.5 1006.5 0.0
26/04:30pm 26.8 22.5 9.2 33 9.7 N 22 32 12 17 1007.1 1007.1 0.0
26/04:00pm 26.6 22.4 7.6 30 10.2 N 19 26 10 14 1007.6 1007.6 0.0
26/03:30pm 24.9 21.5 7.5 33 9.2 N 15 20 8 11 1007.8 1007.8 0.0
26/03:00pm 25.3 20.6 7.9 33 9.3 N 22 35 12 19 1008.9 1008.9 0.0
26/02:30pm 24.7 20.7 8.2 35 8.8 N 19 26 10 14 1009.8 1009.8 0.0
26/02:00pm 25.5 21.6 8.5 34 9.2 N 19 28 10 15 1009.9 1009.9 0.0
26/01:30pm 24.2 20.4 9.8 40 7.9 NNE 20 28 11 15 1010.4 1010.4 0.0
26/01:00pm 22.9 19.3 10.0 44 7.0 NNE 19 28 10 15 1010.5 1010.5 0.0
26/12:30pm 22.6 19.8 11.4 49 6.3 NNE 17 24 9 13 1011.1 1011.1 0.0
26/12:00pm 20.4 17.8 10.8 54 5.3 NE 15 22 8 12 1011.6 1011.6 0.0
26/11:30am 19.0 16.2 11.3 61 4.2 NE 17 22 9 12 1012.3 1012.3 0.0
26/11:00am 17.7 16.5 11.5 67 3.4 NE 9 13 5 7 1013.3 1013.3 0.0
26/10:30am 16.0 15.5 10.7 71 2.8 WSW 4 7 2 4 1014.4 1014.4 0.0
26/10:00am 14.1 12.5 10.3 78 2.0 W 9 17 5 9 1015.0 1015.0 0.0
26/09:30am 13.4 10.6 10.0 80 1.8 WNW 15 19 8 10 1015.2 1015.2 0.0
26/09:00am 12.6 10.9 10.0 84 1.3 S 9 11 5 6 1014.2 1014.2 0.0
26/08:30am 12.3 11.8 9.5 83 1.4 ESE 2 7 1 4 1014.0 1014.0 0.0
26/08:00am 11.4 9.9 9.1 86 1.2 SE 7 9 4 5 1013.8 1013.8 0.0
26/07:30am 10.4 8.6 9.6 95 0.4 ENE 9 11 5 6 1013.0 1013.0 0.0
26/07:00am 7.6 5.6 7.2 97 0.2 ESE 7 11 4 6 1012.9 1012.9 0.0
26/06:30am 6.4 3.8 6.0 97 0.2 S 9 11 5 6 1013.4 1013.4 0.0
26/06:00am 7.1 5.0 6.5 96 0.3 SE 7 9 4 5 1013.1 1013.1 0.0
26/05:30am 7.1 5.2 6.5 96 0.3 E 6 7 3 4 1012.9 1012.9 0.0
26/05:00am 6.3 3.7 5.9 97 0.2 E 9 11 5 6 1013.1 1013.1 0.0
26/04:30am 6.4 3.7 5.8 96 0.3 SE 9 11 5 6 1013.6 1013.6 0.0
26/04:00am 6.8 4.2 6.2 96 0.3 S 9 11 5 6 1014.0 1014.0 0.0
26/03:30am 7.1 4.9 6.4 95 0.3 S 7 9 4 5 1013.8 1013.8 0.0
26/03:00am 7.3 4.4 6.6 95 0.3 SSE 11 13 6 7 1013.7 1013.7 0.0
26/02:30am 7.4 4.5 6.7 95 0.3 SSE 11 13 6 7 1013.8 1013.8 0.0
26/02:00am 7.8 5.4 7.1 95 0.3 S 9 11 5 6 1014.1 1014.1 0.0
26/01:30am 7.9 5.9 7.0 94 0.4 SE 7 9 4 5 1014.2 1014.2 0.0
26/01:00am 7.8 5.3 6.7 93 0.5 SSE 9 11 5 6 1014.8 1014.8 0.0
26/12:30am 8.9 6.7 8.0 94 0.4 S 9 11 5 6 1014.9 1014.9 0.0
26/12:00am 9.4 7.7 8.2 92 0.6 SSE 7 7 4 4 1015.0 1015.0 0.0
 
Date/Time
CDT
Temp
°C
App
Temp
°C
Dew
Point
Rel
Hum
%
Delta-T
°C
Wind Press
QNH
hPa
Press
MSL
hPa
Rain
since 9 am
mm
Dir
 
Spd
km/h
Gust
km/h
Spd
kts
Gust
kts
25/11:30pm 10.5 8.7 9.3 92 0.6 S 9 11 5 6 1015.2 1015.2 0.0
25/11:00pm 10.9 8.4 9.7 92 0.6 SSE 13 15 7 8 1015.5 1015.5 0.0
25/10:30pm 10.6 8.0 9.4 92 0.6 S 13 15 7 8 1015.6 1015.6 0.0
25/10:00pm 11.5 9.1 9.9 90 0.8 S 13 15 7 8 1015.7 1015.7 0.0
25/09:30pm 12.6 10.0 10.7 88 1.0 SSE 15 17 8 9 1015.6 1015.6 0.0
25/09:00pm 13.2 11.0 10.9 86 1.2 S 13 15 7 8 1015.7 1015.7 0.0
25/08:30pm 14.1 12.3 10.9 81 1.7 S 11 13 6 7 1015.7 1015.7 0.0
25/08:00pm 15.9 13.8 11.3 74 2.5 S 13 17 7 9 1015.3 1015.3 0.0
25/07:30pm 17.9 14.8 11.7 67 3.4 SSE 19 24 10 13 1015.0 1015.0 0.0
25/07:00pm 19.7 16.5 12.0 61 4.3 SSE 20 28 11 15 1014.7 1014.7 0.0
25/06:30pm 21.1 17.5 12.0 56 5.1 SSE 22 30 12 16 1014.6 1014.6 0.0
25/06:00pm 21.8 18.1 11.5 52 5.7 SSE 22 28 12 15 1014.4 1014.4 0.0
25/05:30pm 22.6 18.9 11.4 49 6.3 S 22 32 12 17 1014.1 1014.1 0.0
25/05:00pm 23.4 19.9 10.1 43 7.3 S 19 26 10 14 1013.9 1013.9 0.0
25/04:30pm 23.5 19.9 9.9 42 7.4 S 19 30 10 16 1013.9 1013.9 0.0
25/04:00pm 24.1 20.7 11.1 44 7.3 SSE 20 32 11 17 1014.1 1014.1 0.0
25/03:30pm 23.6 19.6 10.6 44 7.2 SSE 22 32 12 17 1014.1 1014.1 0.0
25/03:00pm 24.6 21.2 11.2 43 7.5 S 20 30 11 16 1014.3 1014.3 0.0
25/02:30pm 23.6 20.6 10.6 44 7.2 SSE 17 26 9 14 1014.7 1014.7 0.0
25/02:00pm 23.9 20.4 10.9 44 7.3 SSW 20 22 11 12 1014.8 1014.8 0.0
25/01:30pm 22.5 18.9 10.0 45 6.8 S 19 28 10 15 1015.1 1015.1 0.0
25/01:00pm 22.1 19.0 10.3 47 6.5 S 17 22 9 12 1015.2 1015.2 0.0
25/12:30pm 20.8 17.8 10.6 52 5.6 S 17 24 9 13 1015.8 1015.8 0.0
25/12:00pm 20.0 17.6 10.1 53 5.3 SSW 13 22 7 12 1016.3 1016.3 0.0
25/11:30am 19.4 17.8 10.1 55 5.0 SW 9 17 5 9 1016.9 1016.8 0.0
25/11:00am 18.3 16.8 10.4 60 4.2 SW 9 13 5 7 1017.0 1016.9 0.0
25/10:30am 17.4 15.9 10.5 64 3.7 SW 9 15 5 8 1017.4 1017.3 0.0
25/10:00am 16.8 15.6 10.4 66 3.4 SSW 7 11 4 6 1017.4 1017.3 0.0
25/09:30am 14.9 12.5 9.9 72 2.6 S 13 20 7 11 1017.4 1017.3 0.0
25/09:00am 14.5 10.9 9.9 74 2.4 SSE 19 24 10 13 1017.3 1017.2 0.0
25/08:30am 14.8 11.0 9.8 72 2.6 S 20 26 11 14 1017.3 1017.2 0.0
25/08:00am 14.0 10.3 10.0 77 2.1 SSE 20 26 11 14 1017.3 1017.2 0.0
25/07:30am 13.9 10.1 9.9 77 2.1 SSE 20 24 11 13 1017.0 1016.9 0.0
25/07:00am 13.2 10.0 9.8 80 1.7 SSE 17 22 9 12 1016.9 1016.8 0.0
25/06:30am 13.0 10.5 9.6 80 1.7 SE 13 20 7 11 1016.6 1016.6 0.0
25/06:00am 13.1 9.9 9.9 81 1.6 SE 17 20 9 11 1016.4 1016.4 0.0
25/05:30am 13.0 10.1 9.8 81 1.6 SE 15 24 8 13 1016.2 1016.2 0.0
25/05:00am 13.0 10.6 10.0 82 1.5 SE 13 19 7 10 1016.0 1016.0 0.0
25/04:30am 12.8 10.4 10.0 83 1.4 SE 13 17 7 9 1015.7 1015.7 0.0
25/04:00am 13.0 9.4 10.0 82 1.5 SSE 19 24 10 13 1015.6 1015.6 0.0
25/03:30am 13.2 9.1 10.0 81 1.6 SSE 22 28 12 15 1015.5 1015.5 0.0
25/03:00am 13.3 9.6 10.1 81 1.7 SSE 20 26 11 14 1015.7 1015.7 0.0
25/02:30am 13.3 9.8 10.3 82 1.6 SSE 19 26 10 14 1015.9 1015.9 0.0
25/02:00am 12.9 10.6 10.6 86 1.2 SSE 13 19 7 10 1016.1 1016.1 0.0
25/01:30am 12.9 10.7 10.8 87 1.1 SSE 13 17 7 9 1016.3 1016.3 0.0
25/01:00am 12.5 9.9 10.6 88 1.0 SSE 15 19 8 10 1016.4 1016.4 0.0
25/12:30am 12.2 10.3 10.6 90 0.8 SSE 11 15 6 8 1016.7 1016.7 0.0
25/12:00am 11.0 8.5 9.8 92 0.6 SSE 13 17 7 9 1016.6 1016.6 0.0
 
Date/Time
CDT
Temp
°C
App
Temp
°C
Dew
Point
Rel
Hum
%
Delta-T
°C
Wind Press
QNH
hPa
Press
MSL
hPa
Rain
since 9 am
mm
Dir
 
Spd
km/h
Gust
km/h
Spd
kts
Gust
kts
24/11:30pm 11.1 8.8 10.3 95 0.4 SSE 13 17 7 9 1016.7 1016.7 0.0
24/11:00pm 10.4 7.8 9.5 94 0.5 SSE 13 15 7 8 1016.5 1016.5 0.0
24/10:30pm 10.7 7.8 9.6 93 0.6 SSE 15 17 8 9 1016.5 1016.5 0.0
24/10:00pm 10.8 8.3 9.7 93 0.6 SSE 13 13 7 7 1016.4 1016.4 0.0
24/09:30pm 11.5 9.4 9.9 90 0.8 SSE 11 13 6 7 1016.6 1016.6 0.0
24/09:00pm 12.8 10.6 10.7 87 1.1 S 13 17 7 9 1016.2 1016.2 0.0
24/08:30pm 14.2 11.0 11.4 83 1.5 S 19 24 10 13 1015.7 1015.7 0.0
24/08:00pm 15.0 12.7 11.6 80 1.8 SSW 15 20 8 11 1015.2 1015.2 0.0
24/07:30pm 16.9 14.1 11.4 70 3.0 SW 17 22 9 12 1014.7 1014.7 0.0
24/07:00pm 19.0 15.9 12.3 65 3.7 SW 20 28 11 15 1014.4 1014.4 0.0
24/06:30pm 20.2 16.0 12.4 61 4.4 SW 26 32 14 17 1014.0 1014.0 0.0
24/06:00pm 22.4 18.6 12.4 53 5.7 SW 24 32 13 17 1013.4 1013.4 0.0
24/05:30pm 24.4 19.5 9.9 40 8.0 WSW 26 33 14 18 1013.0 1013.0 0.0
24/05:00pm 25.4 20.8 9.7 37 8.6 WSW 24 32 13 17 1012.7 1012.7 0.0
24/04:30pm 26.5 21.7 8.9 33 9.6 W 24 30 13 16 1012.7 1012.7 0.0
24/04:00pm 26.5 22.0 8.5 32 9.8 W 22 30 12 16 1012.6 1012.6 0.0
24/03:30pm 26.6 22.5 8.6 32 9.8 WNW 20 28 11 15 1012.6 1012.6 0.0
24/03:00pm 26.5 21.7 7.5 30 10.1 WNW 22 33 12 18 1012.8 1012.8 0.0
24/02:30pm 25.8 21.0 7.4 31 9.8 W 22 33 12 18 1013.0 1013.0 0.0
24/02:00pm 25.4 20.9 8.4 34 9.2 W 22 33 12 18 1013.4 1013.4 0.0
24/01:30pm 25.1 20.4 9.4 37 8.6 W 24 37 13 20 1013.7 1013.7 0.0
24/01:00pm 24.1 19.3 10.4 42 7.6 W 26 39 14 21 1013.5 1013.5 0.0
24/12:30pm 23.0 19.5 10.8 46 6.8 W 20 30 11 16 1013.7 1013.7 0.0
24/12:00pm 21.5 17.7 11.2 52 5.7 W 22 32 12 17 1014.0 1014.0 0.0
24/11:30am 20.3 17.7 12.0 59 4.6 WNW 17 26 9 14 1014.1 1014.1 0.0
24/11:00am 18.3 15.9 12.5 69 3.2 WNW 17 30 9 16 1014.1 1014.1 0.0
24/10:30am 16.6 13.7 12.4 76 2.3 W 19 28 10 15 1014.6 1014.6 0.0
24/10:00am 15.0 10.3 12.1 83 1.6 WNW 28 33 15 18 1014.9 1014.9 0.0
24/09:30am 14.0 10.4 13.1 94 0.5 NW 24 32 13 17 1014.3 1014.3 0.0
24/09:00am 13.3 10.7 13.1 99 0.1 WNW 19 24 10 13 1013.8 1013.8 0.0
24/08:30am 12.8 10.4 12.6 99 0.1 NW 17 22 9 12 1013.6 1013.6 0.0
24/08:00am 12.2 10.7 12.0 99 0.1 NNW 11 13 6 7 1012.9 1012.9 0.0
24/07:30am 11.4 10.1 11.2 99 0.1 N 9 13 5 7 1012.9 1012.9 0.0
24/07:00am 10.7 9.6 10.5 99 0.1 NNW 7 11 4 6 1012.8 1012.8 0.0
24/06:30am 10.2 7.8 9.9 98 0.2 NNW 13 19 7 10 1012.7 1012.7 0.0
24/06:00am 10.6 8.6 10.3 98 0.2 NW 11 17 6 9 1012.3 1012.3 0.0
24/05:30am 10.9 9.4 10.6 98 0.2 NW 9 11 5 6 1011.9 1011.9 0.0
24/05:00am 10.5 9.3 10.2 98 0.2 N 7 11 4 6 1011.8 1011.8 0.0
24/04:30am 10.0 7.4 9.5 97 0.3 N 13 17 7 9 1011.9 1011.9 0.0
24/04:00am 8.3 7.0 7.7 96 0.3 NNW 4 11 2 6 1011.8 1011.8 0.0
24/03:30am 8.8 8.1 8.4 97 0.2 NNE 2 7 1 4 1011.5 1011.5 0.0
24/03:00am 8.9 8.6 8.5 97 0.2 CALM 0 2 0 1 1012.1 1012.1 0.0
24/02:30am 8.2 7.6 7.6 96 0.3 CALM 0 0 0 0 1012.5 1012.5 0.0
24/02:00am 9.3 9.0 8.7 96 0.3 CALM 0 0 0 0 1012.6 1012.6 0.0
24/01:30am 9.8 8.4 9.0 95 0.4 SE 6 7 3 4 1012.7 1012.7 0.0
24/01:00am 10.8 9.5 9.9 94 0.5 SSE 7 9 4 5 1013.3 1013.3 0.0
24/12:30am 11.6 10.5 10.7 94 0.5 SSE 7 9 4 5 1013.8 1013.8 0.0
24/12:00am 12.2 10.5 11.1 93 0.6 SSE 11 11 6 6 1013.9 1013.9 0.0
 
Date/Time
CDT
Temp
°C
App
Temp
°C
Dew
Point
Rel
Hum
%
Delta-T
°C
Wind Press
QNH
hPa
Press
MSL
hPa
Rain
since 9 am
mm
Dir
 
Spd
km/h
Gust
km/h
Spd
kts
Gust
kts
23/11:30pm 12.5 11.2 11.4 93 0.6 SSE 9 9 5 5 1013.8 1013.8 0.0
23/11:00pm 13.3 11.4 11.9 91 0.8 S 13 17 7 9 1014.0 1014.0 0.0
23/10:30pm 14.3 12.2 12.5 89 1.0 SSE 15 17 8 9 1014.1 1014.1 0.0
23/10:00pm 13.8 12.3 12.0 89 1.0 SSE 11 15 6 8 1014.3 1014.3 0.0
23/09:30pm 14.2 12.4 12.1 87 1.1 S 13 15 7 8 1014.2 1014.2 0.0
23/09:00pm 15.9 14.8 11.9 77 2.2 SSE 9 9 5 5 1013.9 1013.9 0.0
23/08:30pm 17.4 16.3 13.1 76 2.4 SSE 11 11 6 6 1013.9 1013.9 0.0
23/08:00pm 17.6 16.1 13.1 75 2.5 SSE 13 17 7 9 1013.7 1013.7 0.0
23/07:30pm 19.5 17.7 13.4 68 3.5 S 15 17 8 9 1013.5 1013.5 0.0
23/07:00pm 21.3 19.2 13.7 62 4.4 S 17 22 9 12 1013.2 1013.2 0.0
23/06:30pm 23.2 20.6 13.1 53 5.8 SSE 19 24 10 13 1013.2 1013.2 0.0

Other Formats:

Comma delimited format used in spreadsheet applications
http://www.bom.gov.au/fwo/IDS60801/IDS60801.94820.axf

JavaScript Object Notation format (JSON) in row-major order
http://www.bom.gov.au/fwo/IDS60801/IDS60801.94820.json